Isis — PBXD — position and weather

sailwx.info

Track history (hours):
 
Tides and Currents Weather Stations Pressure Air Temp Water Temp Dewpoint Dewpoint Depression Visibility Wind Speed Wind Dir Waves Ship Positions

Oceanographic research ship Isis (Netherlands)

Detailed information on ship capabilities available from University of Delaware's Ocean Information Center.

Last reported at 2019-Oct-10 11:36 UTC. Time now 2019-Oct-14 10:19 UTC.
Position N 53°48' E 007°21'.

Length 28 m; beam 8 m.

Type: Other ship. MMSI: 244767000.

Date/timePositionNaut miles runAvg speedWind from/ knotsBaromVisibWave heightAir tempDewpointWater temp
2019-Oct-10 11:36N 53°48' E 007°21'1 3.3
2019-Oct-10 11:27N 53°47' E 007°22'1 0.9
2019-Oct-10 10:05N 53°46' E 007°21'0 2.9
2019-Oct-10 10:00N 53°46' E 007°21'4 3.9
2019-Oct-10 09:05N 53°45' E 007°15'1 8.2
2019-Oct-10 09:00N 53°45' E 007°14'3 5.9
2019-Oct-10 08:31N 53°45' E 007°09'3 6.3
2019-Oct-10 08:00N 53°45' E 007°04'3 5.6
2019-Oct-10 07:31N 53°45' E 006°59'3 6.7
2019-Oct-10 07:00N 53°44' E 006°54'4 3.6
2019-Oct-10 05:48N 53°42' E 006°47'3 2.4
2019-Oct-10 04:19N 53°44' E 006°52'1 1.1
2019-Oct-10 03:39N 53°44' E 006°53'0 1.2
2019-Oct-10 03:30N 53°44' E 006°53'1 1.5
2019-Oct-10 03:00N 53°44' E 006°55'1 1.4
2019-Oct-10 02:30N 53°45' E 006°56'1 1.6
2019-Oct-10 02:00N 53°45' E 006°57'1 1.6
2019-Oct-10 01:30N 53°45' E 006°58'1 1.9
2019-Oct-10 01:01N 53°46' E 006°60'1 2.7
2019-Oct-10 00:30N 53°46' E 007°02'2 3.2
2019-Oct-10 00:00N 53°46' E 007°05'2 3.1
2019-Oct-09 23:30N 53°47' E 007°07'2 3.2
2019-Oct-09 23:00N 53°47' E 007°10'1 2.9
2019-Oct-09 22:31N 53°47' E 007°12'2 3.4
2019-Oct-09 22:00N 53°47' E 007°15'2 3.3
2019-Oct-09 21:31N 53°47' E 007°18'1 3.0
2019-Oct-09 21:00N 53°48' E 007°20'9 3.0
2019-Oct-09 17:50N 53°49' E 007°36'10 2.7
2019-Oct-09 14:13N 53°49' E 007°53'21 5.1
2019-Oct-09 10:07N 53°47' E 007°18'1 5.6
2019-Oct-09 09:59N 53°47' E 007°16'2 4.5
2019-Oct-09 09:30N 53°47' E 007°13'3 5.7
2019-Oct-09 09:01N 53°46' E 007°08'4 7.9
2019-Oct-09 08:31N 53°44' E 007°03'4 7.0
2019-Oct-09 08:01N 53°42' E 006°58'44 2.0
2019-Oct-08 10:00N 53°29' E 005°47'2 3.2
2019-Oct-08 09:30N 53°29' E 005°44'4 8.6
2019-Oct-08 09:00N 53°30' E 005°37'2 4.7
2019-Oct-08 08:30N 53°30' E 005°33'4 7.0
2019-Oct-08 07:54N 53°30' E 005°26'1 2.9
2019-Oct-08 07:28N 53°30' E 005°24'3 7.2
2019-Oct-08 07:00N 53°27' E 005°20'3 5.3
2019-Oct-08 06:30N 53°25' E 005°17'1 1.8
2019-Oct-08 05:59N 53°26' E 005°16'1 2.9
2019-Oct-08 05:29N 53°26' E 005°13'0 1.0
2019-Oct-08 04:59N 53°26' E 005°14'0 0.8
2019-Oct-08 04:29N 53°26' E 005°15'1 1.3
2019-Oct-08 04:00N 53°26' E 005°16'3 5.1
2019-Oct-08 03:31N 53°26' E 005°12'3 6.0
2019-Oct-08 03:00N 53°26' E 005°07'3 4.8
2019-Oct-08 02:28N 53°25' E 005°03'5 4.8
2019-Oct-08 01:19N 53°22' E 004°55'17 5.8
2019-Oct-07 22:27N 53°07' E 004°40'3 7.0
2019-Oct-07 22:00N 53°05' E 004°38'5 7.0
2019-Oct-07 21:21N 53°01' E 004°34'2 6.7
2019-Oct-07 21:00N 52°59' E 004°33'3 6.5
2019-Oct-07 20:30N 52°55' E 004°33'3 6.4
2019-Oct-07 20:00N 52°52' E 004°33'3 5.7
2019-Oct-07 19:30N 52°49' E 004°33'3 5.5
2019-Oct-07 19:01N 52°47' E 004°33'3 5.2
2019-Oct-07 18:31N 52°44' E 004°34'3 5.0
2019-Oct-07 18:00N 52°41' E 004°34'3 5.0
2019-Oct-07 17:30N 52°39' E 004°34'3 5.0
2019-Oct-07 17:00N 52°36' E 004°34'2 5.0
2019-Oct-07 16:30N 52°34' E 004°34'2 5.0
2019-Oct-07 16:00N 52°31' E 004°35'1 2.5
2019-Oct-07 15:31N 52°30' E 004°34'1 2.5
2019-Oct-07 15:00N 52°29' E 004°33'3 6.1
2019-Oct-07 14:31N 52°27' E 004°29'3 5.4
2019-Oct-07 14:01N 52°25' E 004°30'2 4.5
2019-Oct-07 13:30N 52°23' E 004°30'3 6.9
2019-Oct-07 13:00N 52°20' E 004°27'2 3.7
2019-Oct-07 12:31N 52°18' E 004°26'510.4
2019-Oct-07 12:00N 52°13' E 004°23'2 4.5
2019-Oct-07 11:31N 52°11' E 004°21'0 0.1
2019-Oct-07 11:00N 52°11' E 004°21'0 0.9
2019-Oct-07 10:30N 52°11' E 004°21'2 3.4
2019-Oct-07 10:01N 52°10' E 004°19'3 6.6
2019-Oct-07 09:31N 52°07' E 004°16'1 1.8
2019-Oct-07 08:57N 52°06' E 004°16'0 0.2
2019-Oct-07 08:30N 52°06' E 004°16'0 0.0
2019-Oct-07 08:00N 52°06' E 004°16'0 0.0
2019-Oct-07 07:30N 52°06' E 004°16'0 0.0
2019-Oct-07 07:00N 52°06' E 004°16'0 0.0
2019-Oct-07 06:30N 52°06' E 004°16'0 0.0
2019-Oct-07 06:00N 52°06' E 004°16'0 0.0
2019-Oct-07 05:30N 52°06' E 004°16'0 0.0
2019-Oct-07 04:57N 52°06' E 004°16'0 0.0
2019-Oct-07 04:30N 52°06' E 004°16'0 0.0
2019-Oct-07 04:00N 52°06' E 004°16'0 0.0
2019-Oct-07 03:30N 52°06' E 004°16'0 0.0
2019-Oct-07 03:00N 52°06' E 004°16'0 0.0
2019-Oct-07 02:00N 52°06' E 004°16'0 0.0
2019-Oct-07 01:30N 52°06' E 004°16'0 0.0
2019-Oct-07 01:00N 52°06' E 004°16'0 0.0
2019-Oct-07 00:30N 52°06' E 004°16'0 0.0
2019-Oct-07 00:00N 52°06' E 004°16'0 0.0
2019-Oct-06 23:30N 52°06' E 004°16'0 0.0
2019-Oct-06 23:00N 52°06' E 004°16'0 0.0
2019-Oct-06 22:30N 52°06' E 004°16'0 0.0
2019-Oct-06 22:00N 52°06' E 004°16'0 0.0
2019-Oct-06 21:30N 52°06' E 004°16'0 0.0
2019-Oct-06 21:00N 52°06' E 004°16'0 0.0
2019-Oct-06 20:27N 52°06' E 004°16'0 0.0
2019-Oct-06 20:00N 52°06' E 004°16'0 0.0
2019-Oct-06 19:30N 52°06' E 004°16'0 0.0
2019-Oct-06 19:00N 52°06' E 004°16'0 0.0
2019-Oct-06 18:30N 52°06' E 004°16'0 0.0
2019-Oct-06 18:00N 52°06' E 004°16'0 0.0
2019-Oct-06 17:30N 52°06' E 004°16'0 0.0
2019-Oct-06 17:00N 52°06' E 004°16'0 0.0
2019-Oct-06 16:30N 52°06' E 004°16'0 0.0
2019-Oct-06 16:00N 52°06' E 004°16'0 0.0
2019-Oct-06 15:30N 52°06' E 004°16'0 0.0
2019-Oct-06 15:00N 52°06' E 004°16'0 0.0
2019-Oct-06 14:30N 52°06' E 004°16'0 0.0
2019-Oct-06 14:00N 52°06' E 004°16'0 0.0
2019-Oct-06 13:30N 52°06' E 004°16'0 0.0
2019-Oct-06 13:00N 52°06' E 004°16'0 0.0
2019-Oct-06 12:30N 52°06' E 004°16'0 0.0
2019-Oct-06 12:00N 52°06' E 004°16'0 0.0
2019-Oct-06 11:30N 52°06' E 004°16'0 0.0
2019-Oct-06 11:00N 52°06' E 004°16'0 0.0
2019-Oct-06 10:30N 52°06' E 004°16'0 0.0
2019-Oct-06 10:00N 52°06' E 004°16'0 0.0
2019-Oct-06 09:30N 52°06' E 004°16'0 0.0
2019-Oct-06 09:00N 52°06' E 004°16'0 0.0
2019-Oct-06 08:30N 52°06' E 004°16'0 0.0
2019-Oct-06 08:00N 52°06' E 004°16'0 0.0
2019-Oct-06 07:30N 52°06' E 004°16'0 0.0
2019-Oct-06 07:00N 52°06' E 004°16'0 0.0
2019-Oct-06 06:30N 52°06' E 004°16'0 0.0
2019-Oct-06 06:00N 52°06' E 004°16'0 0.0
2019-Oct-06 05:30N 52°06' E 004°16'0 0.0
2019-Oct-06 04:59N 52°06' E 004°16'0 0.0
2019-Oct-06 04:30N 52°06' E 004°16'0 0.0
2019-Oct-06 04:00N 52°06' E 004°16'0 0.0
2019-Oct-06 03:30N 52°06' E 004°16'0 0.0
2019-Oct-06 03:00N 52°06' E 004°16'0 0.0
2019-Oct-06 02:30N 52°06' E 004°16'0 0.0
2019-Oct-06 02:00N 52°06' E 004°16'0 0.0
2019-Oct-06 01:30N 52°06' E 004°16'0 0.0
2019-Oct-06 01:00N 52°06' E 004°16'0 0.0
2019-Oct-06 00:30N 52°06' E 004°16'0 0.0
2019-Oct-06 00:00N 52°06' E 004°16'0 0.0
2019-Oct-05 23:30N 52°06' E 004°16'0 0.0
2019-Oct-05 23:00N 52°06' E 004°16'0 0.0
2019-Oct-05 22:30N 52°06' E 004°16'0 0.0
2019-Oct-05 22:00N 52°06' E 004°16'0 0.0
2019-Oct-05 21:29N 52°06' E 004°16'0 0.0
2019-Oct-05 21:00N 52°06' E 004°16'0 0.0
2019-Oct-05 20:26N 52°06' E 004°16'0 0.0
2019-Oct-05 20:00N 52°06' E 004°16'0 0.0
2019-Oct-05 19:30N 52°06' E 004°16'0 0.0
2019-Oct-05 19:00N 52°06' E 004°16'0 0.0
2019-Oct-05 18:30N 52°06' E 004°16'0 0.0
2019-Oct-05 18:00N 52°06' E 004°16'0 0.0
2019-Oct-05 17:30N 52°06' E 004°16'0 0.0
2019-Oct-05 17:00N 52°06' E 004°16'0 0.0
2019-Oct-05 16:29N 52°06' E 004°16'0 0.0
2019-Oct-05 16:00N 52°06' E 004°16'0 0.0
2019-Oct-05 15:30N 52°06' E 004°16'0 0.0
2019-Oct-05 14:59N 52°06' E 004°16'0 0.0
2019-Oct-05 14:29N 52°06' E 004°16'0 0.0
2019-Oct-05 13:59N 52°06' E 004°16'0 0.0
2019-Oct-05 13:30N 52°06' E 004°16'0 0.0
2019-Oct-05 12:59N 52°06' E 004°16'0 0.0
2019-Oct-05 12:29N 52°06' E 004°16'0 0.0
2019-Oct-05 11:59N 52°06' E 004°16'0 0.0
2019-Oct-05 11:30N 52°06' E 004°16'0 0.0
2019-Oct-05 10:57N 52°06' E 004°16'0 0.0
2019-Oct-05 10:29N 52°06' E 004°16'0 0.0
2019-Oct-05 10:00N 52°06' E 004°16'0 0.0
2019-Oct-05 09:30N 52°06' E 004°16'0 0.0
2019-Oct-05 08:59N 52°06' E 004°16'0 0.0
2019-Oct-05 08:29N 52°06' E 004°16'0 0.0
2019-Oct-05 07:59N 52°06' E 004°16'0 0.0
2019-Oct-05 07:29N 52°06' E 004°16'0 0.0
2019-Oct-05 06:59N 52°06' E 004°16'0 0.0
2019-Oct-05 06:30N 52°06' E 004°16'0 0.0
2019-Oct-05 06:00N 52°06' E 004°16'0 0.0
2019-Oct-05 05:29N 52°06' E 004°16'0 0.0
2019-Oct-05 04:59N 52°06' E 004°16'0 0.0
2019-Oct-05 04:29N 52°06' E 004°16'0 0.0
2019-Oct-05 04:00N 52°06' E 004°16'0 0.0
2019-Oct-05 03:29N 52°06' E 004°16'0 0.0
2019-Oct-05 02:59N 52°06' E 004°16'0 0.0
2019-Oct-05 02:29N 52°06' E 004°16'0 0.0
2019-Oct-05 01:59N 52°06' E 004°16'0 0.0
2019-Oct-05 01:29N 52°06' E 004°16'0 0.0
2019-Oct-05 00:59N 52°06' E 004°16'0 0.0
2019-Oct-05 00:29N 52°06' E 004°16'0 0.0
2019-Oct-04 23:59N 52°06' E 004°16'0 0.0
2019-Oct-04 23:29N 52°06' E 004°16'0 0.0
2019-Oct-04 22:59N 52°06' E 004°16'0 0.0
2019-Oct-04 22:29N 52°06' E 004°16'0 0.0
2019-Oct-04 21:59N 52°06' E 004°16'0 0.0
2019-Oct-04 21:29N 52°06' E 004°16'0 0.0
2019-Oct-04 21:00N 52°06' E 004°16'0 0.0
2019-Oct-04 20:29N 52°06' E 004°16'0 0.0
2019-Oct-04 19:59N 52°06' E 004°16'0 0.0
2019-Oct-04 19:29N 52°06' E 004°16'0 0.0
2019-Oct-04 18:59N 52°06' E 004°16'0 0.0
2019-Oct-04 18:29N 52°06' E 004°16'0 0.0
2019-Oct-04 17:59N 52°06' E 004°16'0 0.0
2019-Oct-04 17:29N 52°06' E 004°16'0 0.0
2019-Oct-04 16:59N 52°06' E 004°16'0 0.0
2019-Oct-04 16:29N 52°06' E 004°16'0 0.0
2019-Oct-04 15:59N 52°06' E 004°16'0 0.0
2019-Oct-04 15:29N 52°06' E 004°16'0 0.0
2019-Oct-04 14:59N 52°06' E 004°16'0 0.0
2019-Oct-04 14:29N 52°06' E 004°16'0 0.0
2019-Oct-04 13:59N 52°06' E 004°16'0 0.0
2019-Oct-04 13:29N 52°06' E 004°16'0 0.0
2019-Oct-04 12:59N 52°06' E 004°16'0 0.0
2019-Oct-04 12:29N 52°06' E 004°16'0 0.0
2019-Oct-04 11:59N 52°06' E 004°16'0 0.0
2019-Oct-04 11:29N 52°06' E 004°16'0 0.0
2019-Oct-04 10:59N 52°06' E 004°16'0 0.0
2019-Oct-04 10:29N 52°06' E 004°16'0 0.0
2019-Oct-04 09:59N 52°06' E 004°16'0 0.0
2019-Oct-04 09:29N 52°06' E 004°16'0 0.0
2019-Oct-04 08:59N 52°06' E 004°16'0 0.0
2019-Oct-04 08:29N 52°06' E 004°16'0 0.0
2019-Oct-04 07:59N 52°06' E 004°16'1 1.9
2019-Oct-04 07:31N 52°06' E 004°14'1 2.6
2019-Oct-04 07:01N 52°06' E 004°13'1 2.1
2019-Oct-04 06:31N 52°06' E 004°14'1 2.3
2019-Oct-04 06:01N 52°06' E 004°16'0 0.0
2019-Oct-04 05:28N 52°06' E 004°16'0 0.0
2019-Oct-04 04:58N 52°06' E 004°16'0 0.0
2019-Oct-04 04:28N 52°06' E 004°16'0 0.0
2019-Oct-04 03:58N 52°06' E 004°16'0 0.0
2019-Oct-04 03:28N 52°06' E 004°16'0 0.0
2019-Oct-04 02:58N 52°06' E 004°16'0 0.0
2019-Oct-04 02:28N 52°06' E 004°16'0 0.0
2019-Oct-04 01:49N 52°06' E 004°16'0 0.0
2019-Oct-04 01:28N 52°06' E 004°16'0 0.0
2019-Oct-04 00:58N 52°06' E 004°16'0 0.0
2019-Oct-04 00:28N 52°06' E 004°16'0 0.0
2019-Oct-03 23:58N 52°06' E 004°16'0 0.0
2019-Oct-03 23:28N 52°06' E 004°16'0 0.0
2019-Oct-03 22:58N 52°06' E 004°16'0 0.0
2019-Oct-03 22:28N 52°06' E 004°16'0 0.0
2019-Oct-03 21:58N 52°06' E 004°16'0 0.0
2019-Oct-03 21:28N 52°06' E 004°16'0 0.0
2019-Oct-03 20:58N 52°06' E 004°16'0 0.0
2019-Oct-03 20:28N 52°06' E 004°16'0 0.0
2019-Oct-03 19:55N 52°06' E 004°16'0 0.0
2019-Oct-03 19:28N 52°06' E 004°16'0 0.0
2019-Oct-03 18:58N 52°06' E 004°16'0 0.0
2019-Oct-03 18:28N 52°06' E 004°16'0 0.0
2019-Oct-03 17:58N 52°06' E 004°16'0 0.0
2019-Oct-03 17:28N 52°06' E 004°16'0 0.0
2019-Oct-03 16:58N 52°06' E 004°16'0 0.0
2019-Oct-03 16:28N 52°06' E 004°16'0 0.0
2019-Oct-03 16:00N 52°06' E 004°16'3 6.0
2019-Oct-03 15:30N 52°05' E 004°12'4 7.0
2019-Oct-03 15:00N 52°02' E 004°09'2 3.7
2019-Oct-03 14:30N 52°01' E 004°07'3 5.5
2019-Oct-03 14:01N 52°01' E 004°02'3 6.9
2019-Oct-03 13:30N 51°60' E 003°57'4 8.0
2019-Oct-03 13:00N 51°56' E 003°54'2 4.8
2019-Oct-03 12:30N 51°54' E 003°52'3 5.7
2019-Oct-03 11:57N 51°52' E 003°48'1 1.6
2019-Oct-03 11:30N 51°52' E 003°47'4 7.5
2019-Oct-03 11:00N 51°55' E 003°51'1 3.0
2019-Oct-03 10:30N 51°55' E 003°53'3 5.5
2019-Oct-03 10:00N 51°57' E 003°55'4 7.2
2019-Oct-03 09:30N 52°00' E 003°59'4 8.0
2019-Oct-03 09:01N 52°02' E 004°05'1 2.9
2019-Oct-03 08:30N 52°03' E 004°06'3 6.2
2019-Oct-03 08:00N 52°05' E 004°10'1 1.8
2019-Oct-03 07:30N 52°06' E 004°11'1 2.4
2019-Oct-03 07:01N 52°06' E 004°13'2 4.0
2019-Oct-03 06:30N 52°06' E 004°16'0 0.0
2019-Oct-03 05:59N 52°06' E 004°16'0 0.0
2019-Oct-03 05:29N 52°06' E 004°16'0 0.0
2019-Oct-03 04:59N 52°06' E 004°16'0 0.0
2019-Oct-03 04:29N 52°06' E 004°16'0 0.0
2019-Oct-03 03:59N 52°06' E 004°16'0 0.0
2019-Oct-03 03:29N 52°06' E 004°16'0 0.0
2019-Oct-03 02:59N 52°06' E 004°16'0 0.0
2019-Oct-03 02:29N 52°06' E 004°16'0 0.0
2019-Oct-03 01:59N 52°06' E 004°16'0 0.0
2019-Oct-03 01:29N 52°06' E 004°16'0 0.0
2019-Oct-03 00:59N 52°06' E 004°16'0 0.0
2019-Oct-03 00:29N 52°06' E 004°16'0 0.0
2019-Oct-02 23:59N 52°06' E 004°16'0 0.0
2019-Oct-02 23:29N 52°06' E 004°16'0 0.0
2019-Oct-02 23:00N 52°06' E 004°16'0 0.0
2019-Oct-02 22:29N 52°06' E 004°16'0 0.0
2019-Oct-02 21:59N 52°06' E 004°16'0 0.0
2019-Oct-02 21:29N 52°06' E 004°16'0 0.0
2019-Oct-02 20:59N 52°06' E 004°16'0 0.0
2019-Oct-02 20:29N 52°06' E 004°16'0 0.0
2019-Oct-02 19:59N 52°06' E 004°16'0 0.0
2019-Oct-02 19:29N 52°06' E 004°16'0 0.0
2019-Oct-02 18:59N 52°06' E 004°16'0 0.0
2019-Oct-02 18:29N 52°06' E 004°16'0 0.0
2019-Oct-02 17:56N 52°06' E 004°16'0 0.0
2019-Oct-02 17:29N 52°06' E 004°16'0 0.0
2019-Oct-02 16:59N 52°06' E 004°16'0 0.0
2019-Oct-02 16:29N 52°06' E 004°16'0 0.0
2019-Oct-02 15:59N 52°06' E 004°16'0 0.0
2019-Oct-02 15:29N 52°06' E 004°16'0 0.0
2019-Oct-02 14:59N 52°06' E 004°16'0 0.0
2019-Oct-02 13:59N 52°06' E 004°16'0 0.3
2019-Oct-02 13:28N 52°06' E 004°16'0 0.0
2019-Oct-02 12:58N 52°06' E 004°16'0 0.0
2019-Oct-02 12:28N 52°06' E 004°16'0 0.0
2019-Oct-02 11:58N 52°06' E 004°16'0 0.0
2019-Oct-02 11:28N 52°06' E 004°16'0 0.0
2019-Oct-02 10:58N 52°06' E 004°16'0 0.0
2019-Oct-02 10:28N 52°06' E 004°16'0 0.0
2019-Oct-02 09:58N 52°06' E 004°16'0 0.0
2019-Oct-02 09:28N 52°06' E 004°16'0 0.0
2019-Oct-02 08:58N 52°06' E 004°16'0 0.0
2019-Oct-02 08:28N 52°06' E 004°16'0 0.0
2019-Oct-02 07:58N 52°06' E 004°16'0 0.0
2019-Oct-02 07:28N 52°06' E 004°16'0 0.0
2019-Oct-02 06:58N 52°06' E 004°16'0 0.3
2019-Oct-02 06:28N 52°06' E 004°16'0 0.0
2019-Oct-02 05:58N 52°06' E 004°16'0 0.0
2019-Oct-02 05:28N 52°06' E 004°16'0 0.0
2019-Oct-02 04:58N 52°06' E 004°16'0 0.0
2019-Oct-02 04:28N 52°06' E 004°16'0 0.0
2019-Oct-02 03:55N 52°06' E 004°16'0 0.0
2019-Oct-02 03:28N 52°06' E 004°16'0 0.0
2019-Oct-02 02:58N 52°06' E 004°16'0 0.0
2019-Oct-02 02:28N 52°06' E 004°16'0 0.0
2019-Oct-02 01:58N 52°06' E 004°16'0 0.0
2019-Oct-02 01:25N 52°06' E 004°16'0 0.0
2019-Oct-02 00:58N 52°06' E 004°16'0 0.0
2019-Oct-02 00:28N 52°06' E 004°16'0 0.0
2019-Oct-01 23:58N 52°06' E 004°16'0 0.0
2019-Oct-01 23:28N 52°06' E 004°16'0 0.0
2019-Oct-01 22:58N 52°06' E 004°16'0 0.0
2019-Oct-01 22:28N 52°06' E 004°16'0 0.0
2019-Oct-01 21:58N 52°06' E 004°16'0 0.0
2019-Oct-01 21:28N 52°06' E 004°16'0 0.0
2019-Oct-01 20:58N 52°06' E 004°16'0 0.0
2019-Oct-01 20:28N 52°06' E 004°16'0 0.0
2019-Oct-01 19:58N 52°06' E 004°16'0 0.0
2019-Oct-01 19:28N 52°06' E 004°16'0 0.0
2019-Oct-01 18:58N 52°06' E 004°16'0 0.0
2019-Oct-01 18:28N 52°06' E 004°16'0 0.0
2019-Oct-01 17:58N 52°06' E 004°16'0 0.0
2019-Oct-01 17:28N 52°06' E 004°16'0 0.0
2019-Oct-01 16:58N 52°06' E 004°16'1 2.8
2019-Oct-01 16:30N 52°07' E 004°15'4 7.9
2019-Oct-01 16:01N 52°11' E 004°18'4 7.5
2019-Oct-01 15:30N 52°14' E 004°20'4 7.8
2019-Oct-01 15:00N 52°18' E 004°22'4 8.8
2019-Oct-01 14:30N 52°22' E 004°25'5 9.8
2019-Oct-01 14:00N 52°27' E 004°28'510.6
2019-Oct-01 13:30N 52°32' E 004°29'511.0
2019-Oct-01 13:01N 52°37' E 004°30'611.0
2019-Oct-01 12:30N 52°43' E 004°31'711.1
2019-Oct-01 11:54N 52°50' E 004°32'1210.5
2019-Oct-01 10:46N 53°01' E 004°34'3 9.9
2019-Oct-01 10:30N 53°04' E 004°36'4 7.2
2019-Oct-01 09:56N 53°07' E 004°40'2 4.7
2019-Oct-01 09:30N 53°08' E 004°43'1 0.2
2019-Oct-01 02:26N 53°09' E 004°41'3 6.3
2019-Oct-01 02:00N 53°06' E 004°39'6 6.3
2019-Oct-01 00:59N 53°01' E 004°34'3 6.6
2019-Oct-01 00:30N 52°57' E 004°33'3 6.5
2019-Oct-01 00:00N 52°54' E 004°32'3 6.4
2019-Sep-30 23:30N 52°51' E 004°32'3 6.6
2019-Sep-30 23:00N 52°48' E 004°31'3 7.0
2019-Sep-30 22:30N 52°44' E 004°31'3 6.9
2019-Sep-30 22:00N 52°41' E 004°30'4 7.0
2019-Sep-30 21:30N 52°37' E 004°30'3 7.0
2019-Sep-30 21:00N 52°34' E 004°29'4 7.2
2019-Sep-30 20:30N 52°30' E 004°29'4 7.5
2019-Sep-30 20:00N 52°27' E 004°28'4 7.9
2019-Sep-30 19:30N 52°23' E 004°25'4 8.3
2019-Sep-30 19:00N 52°19' E 004°23'4 8.7
2019-Sep-30 18:30N 52°15' E 004°20'5 9.1
2019-Sep-30 18:01N 52°11' E 004°18'5 9.1
2019-Sep-30 17:30N 52°06' E 004°15'1 1.1
2019-Sep-30 17:00N 52°06' E 004°16'0 0.0
2019-Sep-30 16:30N 52°06' E 004°16'0 0.0
2019-Sep-30 16:00N 52°06' E 004°16'0 0.0
2019-Sep-30 15:31N 52°06' E 004°16'0 0.0
2019-Sep-30 15:01N 52°06' E 004°16'0 0.0
2019-Sep-30 14:30N 52°06' E 004°16'0 0.0
2019-Sep-30 14:01N 52°06' E 004°16'0 0.0
2019-Sep-30 13:30N 52°06' E 004°16'0 0.0
2019-Sep-30 13:00N 52°06' E 004°16'0 0.0
2019-Sep-30 12:30N 52°06' E 004°16'0 0.0
2019-Sep-30 12:01N 52°06' E 004°16'  
Track history (hours):
 
Tides and Currents Weather Stations Pressure Air Temp Water Temp Dewpoint Dewpoint Depression Visibility Wind Speed Wind Dir Waves Ship Positions

Oceanographic research ship Isis (Netherlands)

Detailed information on ship capabilities available from University of Delaware's Ocean Information Center.

Last reported at 2019-Oct-10 11:36 UTC. Time now 2019-Oct-14 10:19 UTC.
Position N 53°48' E 007°21'.

Length 28 m; beam 8 m.

Type: Other ship. MMSI: 244767000.

Date/timePositionNaut miles runAvg speedWind from/ knotsBaromVisibWave heightAir tempDewpointWater temp
2019-Oct-10 11:36N 53°48' E 007°21'1 3.3
2019-Oct-10 11:27N 53°47' E 007°22'1 0.9
2019-Oct-10 10:05N 53°46' E 007°21'0 2.9
2019-Oct-10 10:00N 53°46' E 007°21'4 3.9
2019-Oct-10 09:05N 53°45' E 007°15'1 8.2
2019-Oct-10 09:00N 53°45' E 007°14'3 5.9
2019-Oct-10 08:31N 53°45' E 007°09'3 6.3
2019-Oct-10 08:00N 53°45' E 007°04'3 5.6
2019-Oct-10 07:31N 53°45' E 006°59'3 6.7
2019-Oct-10 07:00N 53°44' E 006°54'4 3.6
2019-Oct-10 05:48N 53°42' E 006°47'3 2.4
2019-Oct-10 04:19N 53°44' E 006°52'1 1.1
2019-Oct-10 03:39N 53°44' E 006°53'0 1.2
2019-Oct-10 03:30N 53°44' E 006°53'1 1.5
2019-Oct-10 03:00N 53°44' E 006°55'1 1.4
2019-Oct-10 02:30N 53°45' E 006°56'1 1.6
2019-Oct-10 02:00N 53°45' E 006°57'1 1.6
2019-Oct-10 01:30N 53°45' E 006°58'1 1.9
2019-Oct-10 01:01N 53°46' E 006°60'1 2.7
2019-Oct-10 00:30N 53°46' E 007°02'2 3.2
2019-Oct-10 00:00N 53°46' E 007°05'2 3.1
2019-Oct-09 23:30N 53°47' E 007°07'2 3.2
2019-Oct-09 23:00N 53°47' E 007°10'1 2.9
2019-Oct-09 22:31N 53°47' E 007°12'2 3.4
2019-Oct-09 22:00N 53°47' E 007°15'2 3.3
2019-Oct-09 21:31N 53°47' E 007°18'1 3.0
2019-Oct-09 21:00N 53°48' E 007°20'9 3.0
2019-Oct-09 17:50N 53°49' E 007°36'10 2.7
2019-Oct-09 14:13N 53°49' E 007°53'21 5.1
2019-Oct-09 10:07N 53°47' E 007°18'1 5.6
2019-Oct-09 09:59N 53°47' E 007°16'2 4.5
2019-Oct-09 09:30N 53°47' E 007°13'3 5.7
2019-Oct-09 09:01N 53°46' E 007°08'4 7.9
2019-Oct-09 08:31N 53°44' E 007°03'4 7.0
2019-Oct-09 08:01N 53°42' E 006°58'44 2.0
2019-Oct-08 10:00N 53°29' E 005°47'2 3.2
2019-Oct-08 09:30N 53°29' E 005°44'4 8.6
2019-Oct-08 09:00N 53°30' E 005°37'2 4.7
2019-Oct-08 08:30N 53°30' E 005°33'4 7.0
2019-Oct-08 07:54N 53°30' E 005°26'1 2.9
2019-Oct-08 07:28N 53°30' E 005°24'3 7.2
2019-Oct-08 07:00N 53°27' E 005°20'3 5.3
2019-Oct-08 06:30N 53°25' E 005°17'1 1.8
2019-Oct-08 05:59N 53°26' E 005°16'1 2.9
2019-Oct-08 05:29N 53°26' E 005°13'0 1.0
2019-Oct-08 04:59N 53°26' E 005°14'0 0.8
2019-Oct-08 04:29N 53°26' E 005°15'1 1.3
2019-Oct-08 04:00N 53°26' E 005°16'3 5.1
2019-Oct-08 03:31N 53°26' E 005°12'3 6.0
2019-Oct-08 03:00N 53°26' E 005°07'3 4.8
2019-Oct-08 02:28N 53°25' E 005°03'5 4.8
2019-Oct-08 01:19N 53°22' E 004°55'17 5.8
2019-Oct-07 22:27N 53°07' E 004°40'3 7.0
2019-Oct-07 22:00N 53°05' E 004°38'5 7.0
2019-Oct-07 21:21N 53°01' E 004°34'2 6.7
2019-Oct-07 21:00N 52°59' E 004°33'3 6.5
2019-Oct-07 20:30N 52°55' E 004°33'3 6.4
2019-Oct-07 20:00N 52°52' E 004°33'3 5.7
2019-Oct-07 19:30N 52°49' E 004°33'3 5.5
2019-Oct-07 19:01N 52°47' E 004°33'3 5.2
2019-Oct-07 18:31N 52°44' E 004°34'3 5.0
2019-Oct-07 18:00N 52°41' E 004°34'3 5.0
2019-Oct-07 17:30N 52°39' E 004°34'3 5.0
2019-Oct-07 17:00N 52°36' E 004°34'2 5.0
2019-Oct-07 16:30N 52°34' E 004°34'2 5.0
2019-Oct-07 16:00N 52°31' E 004°35'1 2.5
2019-Oct-07 15:31N 52°30' E 004°34'1 2.5
2019-Oct-07 15:00N 52°29' E 004°33'3 6.1
2019-Oct-07 14:31N 52°27' E 004°29'3 5.4
2019-Oct-07 14:01N 52°25' E 004°30'2 4.5
2019-Oct-07 13:30N 52°23' E 004°30'3 6.9
2019-Oct-07 13:00N 52°20' E 004°27'2 3.7
2019-Oct-07 12:31N 52°18' E 004°26'510.4
2019-Oct-07 12:00N 52°13' E 004°23'2 4.5
2019-Oct-07 11:31N 52°11' E 004°21'0 0.1
2019-Oct-07 11:00N 52°11' E 004°21'0 0.9
2019-Oct-07 10:30N 52°11' E 004°21'2 3.4
2019-Oct-07 10:01N 52°10' E 004°19'3 6.6
2019-Oct-07 09:31N 52°07' E 004°16'1 1.8
2019-Oct-07 08:57N 52°06' E 004°16'0 0.2
2019-Oct-07 08:30N 52°06' E 004°16'0 0.0
2019-Oct-07 08:00N 52°06' E 004°16'0 0.0
2019-Oct-07 07:30N 52°06' E 004°16'0 0.0
2019-Oct-07 07:00N 52°06' E 004°16'0 0.0
2019-Oct-07 06:30N 52°06' E 004°16'0 0.0
2019-Oct-07 06:00N 52°06' E 004°16'0 0.0
2019-Oct-07 05:30N 52°06' E 004°16'0 0.0
2019-Oct-07 04:57N 52°06' E 004°16'0 0.0
2019-Oct-07 04:30N 52°06' E 004°16'0 0.0
2019-Oct-07 04:00N 52°06' E 004°16'0 0.0
2019-Oct-07 03:30N 52°06' E 004°16'0 0.0
2019-Oct-07 03:00N 52°06' E 004°16'0 0.0
2019-Oct-07 02:00N 52°06' E 004°16'0 0.0
2019-Oct-07 01:30N 52°06' E 004°16'0 0.0
2019-Oct-07 01:00N 52°06' E 004°16'0 0.0
2019-Oct-07 00:30N 52°06' E 004°16'0 0.0
2019-Oct-07 00:00N 52°06' E 004°16'0 0.0
2019-Oct-06 23:30N 52°06' E 004°16'0 0.0
2019-Oct-06 23:00N 52°06' E 004°16'0 0.0
2019-Oct-06 22:30N 52°06' E 004°16'0 0.0
2019-Oct-06 22:00N 52°06' E 004°16'0 0.0
2019-Oct-06 21:30N 52°06' E 004°16'0 0.0
2019-Oct-06 21:00N 52°06' E 004°16'0 0.0
2019-Oct-06 20:27N 52°06' E 004°16'0 0.0
2019-Oct-06 20:00N 52°06' E 004°16'0 0.0
2019-Oct-06 19:30N 52°06' E 004°16'0 0.0
2019-Oct-06 19:00N 52°06' E 004°16'0 0.0
2019-Oct-06 18:30N 52°06' E 004°16'0 0.0
2019-Oct-06 18:00N 52°06' E 004°16'0 0.0
2019-Oct-06 17:30N 52°06' E 004°16'0 0.0
2019-Oct-06 17:00N 52°06' E 004°16'0 0.0
2019-Oct-06 16:30N 52°06' E 004°16'0 0.0
2019-Oct-06 16:00N 52°06' E 004°16'0 0.0
2019-Oct-06 15:30N 52°06' E 004°16'0 0.0
2019-Oct-06 15:00N 52°06' E 004°16'0 0.0
2019-Oct-06 14:30N 52°06' E 004°16'0 0.0
2019-Oct-06 14:00N 52°06' E 004°16'0 0.0
2019-Oct-06 13:30N 52°06' E 004°16'0 0.0
2019-Oct-06 13:00N 52°06' E 004°16'0 0.0
2019-Oct-06 12:30N 52°06' E 004°16'0 0.0
2019-Oct-06 12:00N 52°06' E 004°16'0 0.0
2019-Oct-06 11:30N 52°06' E 004°16'0 0.0
2019-Oct-06 11:00N 52°06' E 004°16'0 0.0
2019-Oct-06 10:30N 52°06' E 004°16'0 0.0
2019-Oct-06 10:00N 52°06' E 004°16'0 0.0
2019-Oct-06 09:30N 52°06' E 004°16'0 0.0
2019-Oct-06 09:00N 52°06' E 004°16'0 0.0
2019-Oct-06 08:30N 52°06' E 004°16'0 0.0
2019-Oct-06 08:00N 52°06' E 004°16'0 0.0
2019-Oct-06 07:30N 52°06' E 004°16'0 0.0
2019-Oct-06 07:00N 52°06' E 004°16'0 0.0
2019-Oct-06 06:30N 52°06' E 004°16'0 0.0
2019-Oct-06 06:00N 52°06' E 004°16'0 0.0
2019-Oct-06 05:30N 52°06' E 004°16'0 0.0
2019-Oct-06 04:59N 52°06' E 004°16'0 0.0
2019-Oct-06 04:30N 52°06' E 004°16'0 0.0
2019-Oct-06 04:00N 52°06' E 004°16'0 0.0
2019-Oct-06 03:30N 52°06' E 004°16'0 0.0
2019-Oct-06 03:00N 52°06' E 004°16'0 0.0
2019-Oct-06 02:30N 52°06' E 004°16'0 0.0
2019-Oct-06 02:00N 52°06' E 004°16'0 0.0
2019-Oct-06 01:30N 52°06' E 004°16'0 0.0
2019-Oct-06 01:00N 52°06' E 004°16'0 0.0
2019-Oct-06 00:30N 52°06' E 004°16'0 0.0
2019-Oct-06 00:00N 52°06' E 004°16'0 0.0
2019-Oct-05 23:30N 52°06' E 004°16'0 0.0
2019-Oct-05 23:00N 52°06' E 004°16'0 0.0
2019-Oct-05 22:30N 52°06' E 004°16'0 0.0
2019-Oct-05 22:00N 52°06' E 004°16'0 0.0
2019-Oct-05 21:29N 52°06' E 004°16'0 0.0
2019-Oct-05 21:00N 52°06' E 004°16'0 0.0
2019-Oct-05 20:26N 52°06' E 004°16'0 0.0
2019-Oct-05 20:00N 52°06' E 004°16'0 0.0
2019-Oct-05 19:30N 52°06' E 004°16'0 0.0
2019-Oct-05 19:00N 52°06' E 004°16'0 0.0
2019-Oct-05 18:30N 52°06' E 004°16'0 0.0
2019-Oct-05 18:00N 52°06' E 004°16'0 0.0
2019-Oct-05 17:30N 52°06' E 004°16'0 0.0
2019-Oct-05 17:00N 52°06' E 004°16'0 0.0
2019-Oct-05 16:29N 52°06' E 004°16'0 0.0
2019-Oct-05 16:00N 52°06' E 004°16'0 0.0
2019-Oct-05 15:30N 52°06' E 004°16'0 0.0
2019-Oct-05 14:59N 52°06' E 004°16'0 0.0
2019-Oct-05 14:29N 52°06' E 004°16'0 0.0
2019-Oct-05 13:59N 52°06' E 004°16'0 0.0
2019-Oct-05 13:30N 52°06' E 004°16'0 0.0
2019-Oct-05 12:59N 52°06' E 004°16'0 0.0
2019-Oct-05 12:29N 52°06' E 004°16'0 0.0
2019-Oct-05 11:59N 52°06' E 004°16'0 0.0
2019-Oct-05 11:30N 52°06' E 004°16'0 0.0
2019-Oct-05 10:57N 52°06' E 004°16'0 0.0
2019-Oct-05 10:29N 52°06' E 004°16'0 0.0
2019-Oct-05 10:00N 52°06' E 004°16'0 0.0
2019-Oct-05 09:30N 52°06' E 004°16'0 0.0
2019-Oct-05 08:59N 52°06' E 004°16'0 0.0
2019-Oct-05 08:29N 52°06' E 004°16'0 0.0
2019-Oct-05 07:59N 52°06' E 004°16'0 0.0
2019-Oct-05 07:29N 52°06' E 004°16'0 0.0
2019-Oct-05 06:59N 52°06' E 004°16'0 0.0
2019-Oct-05 06:30N 52°06' E 004°16'0 0.0
2019-Oct-05 06:00N 52°06' E 004°16'0 0.0
2019-Oct-05 05:29N 52°06' E 004°16'0 0.0
2019-Oct-05 04:59N 52°06' E 004°16'0 0.0
2019-Oct-05 04:29N 52°06' E 004°16'0 0.0
2019-Oct-05 04:00N 52°06' E 004°16'0 0.0
2019-Oct-05 03:29N 52°06' E 004°16'0 0.0
2019-Oct-05 02:59N 52°06' E 004°16'0 0.0
2019-Oct-05 02:29N 52°06' E 004°16'0 0.0
2019-Oct-05 01:59N 52°06' E 004°16'0 0.0
2019-Oct-05 01:29N 52°06' E 004°16'0 0.0
2019-Oct-05 00:59N 52°06' E 004°16'0 0.0
2019-Oct-05 00:29N 52°06' E 004°16'0 0.0
2019-Oct-04 23:59N 52°06' E 004°16'0 0.0
2019-Oct-04 23:29N 52°06' E 004°16'0 0.0
2019-Oct-04 22:59N 52°06' E 004°16'0 0.0
2019-Oct-04 22:29N 52°06' E 004°16'0 0.0
2019-Oct-04 21:59N 52°06' E 004°16'0 0.0
2019-Oct-04 21:29N 52°06' E 004°16'0 0.0
2019-Oct-04 21:00N 52°06' E 004°16'0 0.0
2019-Oct-04 20:29N 52°06' E 004°16'0 0.0
2019-Oct-04 19:59N 52°06' E 004°16'0 0.0
2019-Oct-04 19:29N 52°06' E 004°16'0 0.0
2019-Oct-04 18:59N 52°06' E 004°16'0 0.0
2019-Oct-04 18:29N 52°06' E 004°16'0 0.0
2019-Oct-04 17:59N 52°06' E 004°16'0 0.0
2019-Oct-04 17:29N 52°06' E 004°16'0 0.0
2019-Oct-04 16:59N 52°06' E 004°16'0 0.0
2019-Oct-04 16:29N 52°06' E 004°16'0 0.0
2019-Oct-04 15:59N 52°06' E 004°16'0 0.0
2019-Oct-04 15:29N 52°06' E 004°16'0 0.0
2019-Oct-04 14:59N 52°06' E 004°16'0 0.0
2019-Oct-04 14:29N 52°06' E 004°16'0 0.0
2019-Oct-04 13:59N 52°06' E 004°16'0 0.0
2019-Oct-04 13:29N 52°06' E 004°16'0 0.0
2019-Oct-04 12:59N 52°06' E 004°16'0 0.0
2019-Oct-04 12:29N 52°06' E 004°16'0 0.0
2019-Oct-04 11:59N 52°06' E 004°16'0 0.0
2019-Oct-04 11:29N 52°06' E 004°16'0 0.0
2019-Oct-04 10:59N 52°06' E 004°16'0 0.0
2019-Oct-04 10:29N 52°06' E 004°16'0 0.0
2019-Oct-04 09:59N 52°06' E 004°16'0 0.0
2019-Oct-04 09:29N 52°06' E 004°16'0 0.0
2019-Oct-04 08:59N 52°06' E 004°16'0 0.0
2019-Oct-04 08:29N 52°06' E 004°16'0 0.0
2019-Oct-04 07:59N 52°06' E 004°16'1 1.9
2019-Oct-04 07:31N 52°06' E 004°14'1 2.6
2019-Oct-04 07:01N 52°06' E 004°13'1 2.1
2019-Oct-04 06:31N 52°06' E 004°14'1 2.3
2019-Oct-04 06:01N 52°06' E 004°16'0 0.0
2019-Oct-04 05:28N 52°06' E 004°16'0 0.0
2019-Oct-04 04:58N 52°06' E 004°16'0 0.0
2019-Oct-04 04:28N 52°06' E 004°16'0 0.0
2019-Oct-04 03:58N 52°06' E 004°16'0 0.0
2019-Oct-04 03:28N 52°06' E 004°16'0 0.0
2019-Oct-04 02:58N 52°06' E 004°16'0 0.0
2019-Oct-04 02:28N 52°06' E 004°16'0 0.0
2019-Oct-04 01:49N 52°06' E 004°16'0 0.0
2019-Oct-04 01:28N 52°06' E 004°16'0 0.0
2019-Oct-04 00:58N 52°06' E 004°16'0 0.0
2019-Oct-04 00:28N 52°06' E 004°16'0 0.0
2019-Oct-03 23:58N 52°06' E 004°16'0 0.0
2019-Oct-03 23:28N 52°06' E 004°16'0 0.0
2019-Oct-03 22:58N 52°06' E 004°16'0 0.0
2019-Oct-03 22:28N 52°06' E 004°16'0 0.0
2019-Oct-03 21:58N 52°06' E 004°16'0 0.0
2019-Oct-03 21:28N 52°06' E 004°16'0 0.0
2019-Oct-03 20:58N 52°06' E 004°16'0 0.0
2019-Oct-03 20:28N 52°06' E 004°16'0 0.0
2019-Oct-03 19:55N 52°06' E 004°16'0 0.0
2019-Oct-03 19:28N 52°06' E 004°16'0 0.0
2019-Oct-03 18:58N 52°06' E 004°16'0 0.0
2019-Oct-03 18:28N 52°06' E 004°16'0 0.0
2019-Oct-03 17:58N 52°06' E 004°16'0 0.0
2019-Oct-03 17:28N 52°06' E 004°16'0 0.0
2019-Oct-03 16:58N 52°06' E 004°16'0 0.0
2019-Oct-03 16:28N 52°06' E 004°16'0 0.0
2019-Oct-03 16:00N 52°06' E 004°16'3 6.0
2019-Oct-03 15:30N 52°05' E 004°12'4 7.0
2019-Oct-03 15:00N 52°02' E 004°09'2 3.7
2019-Oct-03 14:30N 52°01' E 004°07'3 5.5
2019-Oct-03 14:01N 52°01' E 004°02'3 6.9
2019-Oct-03 13:30N 51°60' E 003°57'4 8.0
2019-Oct-03 13:00N 51°56' E 003°54'2 4.8
2019-Oct-03 12:30N 51°54' E 003°52'3 5.7
2019-Oct-03 11:57N 51°52' E 003°48'1 1.6
2019-Oct-03 11:30N 51°52' E 003°47'4 7.5
2019-Oct-03 11:00N 51°55' E 003°51'1 3.0
2019-Oct-03 10:30N 51°55' E 003°53'3 5.5
2019-Oct-03 10:00N 51°57' E 003°55'4 7.2
2019-Oct-03 09:30N 52°00' E 003°59'4 8.0
2019-Oct-03 09:01N 52°02' E 004°05'1 2.9
2019-Oct-03 08:30N 52°03' E 004°06'3 6.2
2019-Oct-03 08:00N 52°05' E 004°10'1 1.8
2019-Oct-03 07:30N 52°06' E 004°11'1 2.4
2019-Oct-03 07:01N 52°06' E 004°13'2 4.0
2019-Oct-03 06:30N 52°06' E 004°16'0 0.0
2019-Oct-03 05:59N 52°06' E 004°16'0 0.0
2019-Oct-03 05:29N 52°06' E 004°16'0 0.0
2019-Oct-03 04:59N 52°06' E 004°16'0 0.0
2019-Oct-03 04:29N 52°06' E 004°16'0 0.0
2019-Oct-03 03:59N 52°06' E 004°16'0 0.0
2019-Oct-03 03:29N 52°06' E 004°16'0 0.0
2019-Oct-03 02:59N 52°06' E 004°16'0 0.0
2019-Oct-03 02:29N 52°06' E 004°16'0 0.0
2019-Oct-03 01:59N 52°06' E 004°16'0 0.0
2019-Oct-03 01:29N 52°06' E 004°16'0 0.0
2019-Oct-03 00:59N 52°06' E 004°16'0 0.0
2019-Oct-03 00:29N 52°06' E 004°16'0 0.0
2019-Oct-02 23:59N 52°06' E 004°16'0 0.0
2019-Oct-02 23:29N 52°06' E 004°16'0 0.0
2019-Oct-02 23:00N 52°06' E 004°16'0 0.0
2019-Oct-02 22:29N 52°06' E 004°16'0 0.0
2019-Oct-02 21:59N 52°06' E 004°16'0 0.0
2019-Oct-02 21:29N 52°06' E 004°16'0 0.0
2019-Oct-02 20:59N 52°06' E 004°16'0 0.0
2019-Oct-02 20:29N 52°06' E 004°16'0 0.0
2019-Oct-02 19:59N 52°06' E 004°16'0 0.0
2019-Oct-02 19:29N 52°06' E 004°16'0 0.0
2019-Oct-02 18:59N 52°06' E 004°16'0 0.0
2019-Oct-02 18:29N 52°06' E 004°16'0 0.0
2019-Oct-02 17:56N 52°06' E 004°16'0 0.0
2019-Oct-02 17:29N 52°06' E 004°16'0 0.0
2019-Oct-02 16:59N 52°06' E 004°16'0 0.0
2019-Oct-02 16:29N 52°06' E 004°16'0 0.0
2019-Oct-02 15:59N 52°06' E 004°16'0 0.0
2019-Oct-02 15:29N 52°06' E 004°16'0 0.0
2019-Oct-02 14:59N 52°06' E 004°16'0 0.0
2019-Oct-02 13:59N 52°06' E 004°16'0 0.3
2019-Oct-02 13:28N 52°06' E 004°16'0 0.0
2019-Oct-02 12:58N 52°06' E 004°16'0 0.0
2019-Oct-02 12:28N 52°06' E 004°16'0 0.0
2019-Oct-02 11:58N 52°06' E 004°16'0 0.0
2019-Oct-02 11:28N 52°06' E 004°16'0 0.0
2019-Oct-02 10:58N 52°06' E 004°16'0 0.0
2019-Oct-02 10:28N 52°06' E 004°16'0 0.0
2019-Oct-02 09:58N 52°06' E 004°16'0 0.0
2019-Oct-02 09:28N 52°06' E 004°16'0 0.0
2019-Oct-02 08:58N 52°06' E 004°16'0 0.0
2019-Oct-02 08:28N 52°06' E 004°16'0 0.0
2019-Oct-02 07:58N 52°06' E 004°16'0 0.0
2019-Oct-02 07:28N 52°06' E 004°16'0 0.0
2019-Oct-02 06:58N 52°06' E 004°16'0 0.3
2019-Oct-02 06:28N 52°06' E 004°16'0 0.0
2019-Oct-02 05:58N 52°06' E 004°16'0 0.0
2019-Oct-02 05:28N 52°06' E 004°16'0 0.0
2019-Oct-02 04:58N 52°06' E 004°16'0 0.0
2019-Oct-02 04:28N 52°06' E 004°16'0 0.0
2019-Oct-02 03:55N 52°06' E 004°16'0 0.0
2019-Oct-02 03:28N 52°06' E 004°16'0 0.0
2019-Oct-02 02:58N 52°06' E 004°16'0 0.0
2019-Oct-02 02:28N 52°06' E 004°16'0 0.0
2019-Oct-02 01:58N 52°06' E 004°16'0 0.0
2019-Oct-02 01:25N 52°06' E 004°16'0 0.0
2019-Oct-02 00:58N 52°06' E 004°16'0 0.0
2019-Oct-02 00:28N 52°06' E 004°16'0 0.0
2019-Oct-01 23:58N 52°06' E 004°16'0 0.0
2019-Oct-01 23:28N 52°06' E 004°16'0 0.0
2019-Oct-01 22:58N 52°06' E 004°16'0 0.0
2019-Oct-01 22:28N 52°06' E 004°16'0 0.0
2019-Oct-01 21:58N 52°06' E 004°16'0 0.0
2019-Oct-01 21:28N 52°06' E 004°16'0 0.0
2019-Oct-01 20:58N 52°06' E 004°16'0 0.0
2019-Oct-01 20:28N 52°06' E 004°16'0 0.0
2019-Oct-01 19:58N 52°06' E 004°16'0 0.0
2019-Oct-01 19:28N 52°06' E 004°16'0 0.0
2019-Oct-01 18:58N 52°06' E 004°16'0 0.0
2019-Oct-01 18:28N 52°06' E 004°16'0 0.0
2019-Oct-01 17:58N 52°06' E 004°16'0 0.0
2019-Oct-01 17:28N 52°06' E 004°16'0 0.0
2019-Oct-01 16:58N 52°06' E 004°16'1 2.8
2019-Oct-01 16:30N 52°07' E 004°15'4 7.9
2019-Oct-01 16:01N 52°11' E 004°18'4 7.5
2019-Oct-01 15:30N 52°14' E 004°20'4 7.8
2019-Oct-01 15:00N 52°18' E 004°22'4 8.8
2019-Oct-01 14:30N 52°22' E 004°25'5 9.8
2019-Oct-01 14:00N 52°27' E 004°28'510.6
2019-Oct-01 13:30N 52°32' E 004°29'511.0
2019-Oct-01 13:01N 52°37' E 004°30'611.0
2019-Oct-01 12:30N 52°43' E 004°31'711.1
2019-Oct-01 11:54N 52°50' E 004°32'1210.5
2019-Oct-01 10:46N 53°01' E 004°34'3 9.9
2019-Oct-01 10:30N 53°04' E 004°36'4 7.2
2019-Oct-01 09:56N 53°07' E 004°40'2 4.7
2019-Oct-01 09:30N 53°08' E 004°43'1 0.2
2019-Oct-01 02:26N 53°09' E 004°41'3 6.3
2019-Oct-01 02:00N 53°06' E 004°39'6 6.3
2019-Oct-01 00:59N 53°01' E 004°34'3 6.6
2019-Oct-01 00:30N 52°57' E 004°33'3 6.5
2019-Oct-01 00:00N 52°54' E 004°32'3 6.4
2019-Sep-30 23:30N 52°51' E 004°32'3 6.6
2019-Sep-30 23:00N 52°48' E 004°31'3 7.0
2019-Sep-30 22:30N 52°44' E 004°31'3 6.9
2019-Sep-30 22:00N 52°41' E 004°30'4 7.0
2019-Sep-30 21:30N 52°37' E 004°30'3 7.0
2019-Sep-30 21:00N 52°34' E 004°29'4 7.2
2019-Sep-30 20:30N 52°30' E 004°29'4 7.5
2019-Sep-30 20:00N 52°27' E 004°28'4 7.9
2019-Sep-30 19:30N 52°23' E 004°25'4 8.3
2019-Sep-30 19:00N 52°19' E 004°23'4 8.7
2019-Sep-30 18:30N 52°15' E 004°20'5 9.1
2019-Sep-30 18:01N 52°11' E 004°18'5 9.1
2019-Sep-30 17:30N 52°06' E 004°15'1 1.1
2019-Sep-30 17:00N 52°06' E 004°16'0 0.0
2019-Sep-30 16:30N 52°06' E 004°16'0 0.0
2019-Sep-30 16:00N 52°06' E 004°16'0 0.0
2019-Sep-30 15:31N 52°06' E 004°16'0 0.0
2019-Sep-30 15:01N 52°06' E 004°16'0 0.0
2019-Sep-30 14:30N 52°06' E 004°16'0 0.0
2019-Sep-30 14:01N 52°06' E 004°16'0 0.0
2019-Sep-30 13:30N 52°06' E 004°16'0 0.0
2019-Sep-30 13:00N 52°06' E 004°16'0 0.0
2019-Sep-30 12:30N 52°06' E 004°16'0 0.0
2019-Sep-30 12:01N 52°06' E 004°16'  

Dump ship's entire track history